createdAt,value
2022-08-01T00:01:32.724Z,5.95
2022-08-01T00:04:01.636Z,5.63
2022-08-01T00:06:30.264Z,5.50
2022-08-01T00:08:58.905Z,5.50
2022-08-01T00:11:27.465Z,6.00
2022-08-01T00:13:56.225Z,5.80
2022-08-01T00:16:24.598Z,6.50
2022-08-01T00:18:55.031Z,6.43
2022-08-01T00:21:23.974Z,5.80
2022-08-01T00:23:52.206Z,5.78
2022-08-01T00:26:21.287Z,5.60
2022-08-01T00:28:49.588Z,6.18
2022-08-01T00:31:17.889Z,5.70
2022-08-01T00:33:46.277Z,5.88
2022-08-01T00:36:16.053Z,5.57
2022-08-01T00:38:44.236Z,5.82
2022-08-01T00:41:12.395Z,5.68
2022-08-01T00:43:40.601Z,5.68
2022-08-01T00:46:08.819Z,5.82
2022-08-01T00:48:37.025Z,5.75
2022-08-01T00:51:07.101Z,5.93
2022-08-01T00:53:51.106Z,5.53
2022-08-01T00:56:21.211Z,6.20
2022-08-01T00:58:50.344Z,5.57
2022-08-01T01:01:21.702Z,5.70
2022-08-01T01:03:59.494Z,5.50
2022-08-01T01:06:42.213Z,5.65
2022-08-01T01:09:28.546Z,5.55
2022-08-01T01:12:12.337Z,5.80
2022-08-01T01:14:47.632Z,5.45
2022-08-01T01:17:31.201Z,5.20
2022-08-01T01:20:12.541Z,6.07
2022-08-01T01:22:55.561Z,5.78
2022-08-01T01:26:14.919Z,5.75
2022-08-01T01:29:07.195Z,5.53
2022-08-01T01:31:44.268Z,5.13
2022-08-01T01:34:16.023Z,5.18
2022-08-01T01:36:46.657Z,5.40
2022-08-01T01:39:16.504Z,5.07
2022-08-01T01:41:46.450Z,5.13
2022-08-01T01:44:17.260Z,5.10
2022-08-01T01:46:45.776Z,5.10
2022-08-01T01:49:14.855Z,4.82
2022-08-01T01:51:53.262Z,4.97
2022-08-01T01:54:33.573Z,4.80
2022-08-01T01:57:04.945Z,4.80
2022-08-01T01:59:37.391Z,5.32
2022-08-01T02:02:08.033Z,5.32
2022-08-01T02:04:40.218Z,4.78
2022-08-01T02:07:10.819Z,5.05
2022-08-01T02:09:42.793Z,5.20
2022-08-01T02:12:15.922Z,5.22
2022-08-01T02:14:48.248Z,5.53
2022-08-01T02:17:20.989Z,5.47
2022-08-01T02:19:50.081Z,5.00
2022-08-01T02:22:26.854Z,5.45
2022-08-01T02:25:11.489Z,5.07
2022-08-01T02:27:45.311Z,5.22
2022-08-01T02:30:17.490Z,4.68
2022-08-01T02:32:49.323Z,4.13
2022-08-01T02:35:25.965Z,4.05
2022-08-01T02:37:55.222Z,3.75
2022-08-01T02:40:24.072Z,3.67
2022-08-01T02:42:55.568Z,2.92
2022-08-01T02:45:29.640Z,2.55
2022-08-01T02:48:05.481Z,2.72
2022-08-01T02:50:35.630Z,2.80
2022-08-01T02:53:05.579Z,3.25
2022-08-01T02:55:35.136Z,3.20
2022-08-01T02:58:04.056Z,2.65
2022-08-01T03:00:35.407Z,2.88
2022-08-01T03:03:08.984Z,2.80
2022-08-01T03:05:38.548Z,3.30
2022-08-01T03:08:14.551Z,3.05
2022-08-01T03:10:46.823Z,3.50
2022-08-01T03:13:16.783Z,3.22
2022-08-01T03:15:47.902Z,3.50
2022-08-01T03:18:17.527Z,3.78
2022-08-01T03:20:46.955Z,3.70
2022-08-01T03:23:16.285Z,3.22
2022-08-01T03:25:47.062Z,3.50
2022-08-01T03:28:18.166Z,3.53
2022-08-01T03:30:50.837Z,3.58
2022-08-01T03:33:19.376Z,3.78
2022-08-01T03:35:50.935Z,3.80
2022-08-01T03:38:23.829Z,3.67
2022-08-01T03:40:58.003Z,3.78
2022-08-01T03:43:37.657Z,3.88
2022-08-01T03:46:10.823Z,3.78
2022-08-01T03:48:43.847Z,3.33
2022-08-01T03:51:13.547Z,4.13
2022-08-01T03:53:44.792Z,4.30
2022-08-01T03:56:20.079Z,4.00
2022-08-01T03:58:50.085Z,4.18
2022-08-01T04:01:20.692Z,4.35
2022-08-01T04:03:49.190Z,3.97
2022-08-01T04:06:18.239Z,3.50
2022-08-01T04:08:56.467Z,3.85
2022-08-01T04:11:27.026Z,3.50
2022-08-01T04:13:56.638Z,3.03
2022-08-01T04:16:27.932Z,3.13
2022-08-01T04:18:56.107Z,3.20
2022-08-01T04:21:28.607Z,2.88
2022-08-01T04:24:01.622Z,2.63
2022-08-01T04:26:31.938Z,2.45
2022-08-01T04:29:03.626Z,3.08
2022-08-01T04:31:35.292Z,2.35
2022-08-01T04:34:06.861Z,2.42
2022-08-01T04:36:38.016Z,2.03
2022-08-01T04:39:08.152Z,1.70
2022-08-01T04:41:37.879Z,1.65
2022-08-01T04:44:07.785Z,1.73
2022-08-01T04:46:39.067Z,1.92
2022-08-01T04:49:10.071Z,1.63
2022-08-01T04:51:38.364Z,1.73
2022-08-01T04:54:08.373Z,1.60
2022-08-01T04:56:36.649Z,1.55
2022-08-01T04:59:20.074Z,1.60
2022-08-01T05:01:52.651Z,1.70
2022-08-01T05:04:20.925Z,1.33
2022-08-01T05:06:49.077Z,1.40
2022-08-01T05:09:17.242Z,1.48
2022-08-01T05:11:45.427Z,1.45
2022-08-01T05:14:13.688Z,1.40
2022-08-01T05:16:42.778Z,1.50
2022-08-01T05:19:12.602Z,1.38
2022-08-01T05:21:40.913Z,1.20
2022-08-01T05:24:09.506Z,1.50
2022-08-01T05:26:38.329Z,1.20
2022-08-01T05:29:07.251Z,1.38
2022-08-01T05:31:35.762Z,1.52
2022-08-01T05:34:04.607Z,1.40
2022-08-01T05:36:34.200Z,1.52
2022-08-01T05:39:02.410Z,1.70
2022-08-01T05:41:30.569Z,1.50
2022-08-01T05:43:58.861Z,1.60
2022-08-01T05:46:27.611Z,1.50
2022-08-01T05:48:56.124Z,1.48
2022-08-01T05:51:24.422Z,1.70
2022-08-01T05:53:54.320Z,1.42
2022-08-01T05:56:23.310Z,1.45
2022-08-01T05:58:52.226Z,1.65
2022-08-01T06:01:21.247Z,1.50
2022-08-01T06:03:49.572Z,1.67
2022-08-01T06:06:18.062Z,1.50
2022-08-01T06:08:46.277Z,1.35
2022-08-01T06:11:19.047Z,1.30
2022-08-01T06:13:48.901Z,1.70
2022-08-01T06:16:17.819Z,1.58
2022-08-01T06:18:46.043Z,2.00
2022-08-01T06:21:14.342Z,1.60
2022-08-01T06:23:43.412Z,1.88
2022-08-01T06:26:12.302Z,1.95
2022-08-01T06:28:42.371Z,1.90
2022-08-01T06:31:12.471Z,1.70
2022-08-01T06:33:40.692Z,1.40
2022-08-01T06:36:10.121Z,1.45
2022-08-01T06:38:38.307Z,1.58
2022-08-01T06:41:06.645Z,1.55
2022-08-01T06:43:34.822Z,1.17
2022-08-01T06:46:04.536Z,1.40
2022-08-01T06:48:32.880Z,1.25
2022-08-01T06:51:09.923Z,1.30
2022-08-01T06:53:39.611Z,1.40
2022-08-01T06:56:09.570Z,1.50
2022-08-01T06:58:38.020Z,2.05
2022-08-01T07:01:08.482Z,1.52
2022-08-01T07:03:54.062Z,1.80
2022-08-01T07:06:24.674Z,1.88
2022-08-01T07:08:53.217Z,2.00
2022-08-01T07:11:21.834Z,2.67
2022-08-01T07:13:50.183Z,5.57
2022-08-01T07:16:19.870Z,4.45
2022-08-01T07:18:48.078Z,3.90
2022-08-01T07:21:40.405Z,3.97
2022-08-01T07:24:13.258Z,3.03
2022-08-01T07:26:52.139Z,2.92
2022-08-01T07:29:24.386Z,2.63
2022-08-01T07:31:55.084Z,3.05
2022-08-01T07:34:24.366Z,2.30
2022-08-01T07:36:53.034Z,3.00
2022-08-01T07:39:22.144Z,3.10
2022-08-01T07:42:06.274Z,2.88
2022-08-01T07:44:36.698Z,3.63
2022-08-01T07:47:07.368Z,3.80
2022-08-01T07:49:39.993Z,4.07
2022-08-01T07:52:09.679Z,3.75
2022-08-01T07:54:38.551Z,4.10
2022-08-01T07:57:08.067Z,4.30
2022-08-01T07:59:36.588Z,3.55
2022-08-01T08:02:06.780Z,3.17
2022-08-01T08:04:35.683Z,3.78
2022-08-01T08:07:04.445Z,4.10
2022-08-01T08:09:37.095Z,5.28
2022-08-01T08:12:08.150Z,5.10
2022-08-01T08:14:36.995Z,5.40
2022-08-01T08:17:06.963Z,5.40
2022-08-01T08:19:39.065Z,6.03
2022-08-01T08:22:09.120Z,5.88
2022-08-01T08:24:45.651Z,5.80
2022-08-01T08:27:15.818Z,5.82
2022-08-01T08:29:44.810Z,6.53
2022-08-01T08:32:15.011Z,6.43
2022-08-01T08:34:43.409Z,6.38
2022-08-01T08:37:12.111Z,6.30
2022-08-01T08:39:41.335Z,6.97
2022-08-01T08:42:11.863Z,6.45
2022-08-01T08:44:43.510Z,6.78
2022-08-01T08:47:20.141Z,6.07
2022-08-01T08:49:50.521Z,5.60
2022-08-01T08:52:21.125Z,6.30
2022-08-01T08:54:51.365Z,5.82
2022-08-01T08:57:22.589Z,6.10
2022-08-01T08:59:53.089Z,5.68
2022-08-01T09:02:23.232Z,5.70
2022-08-01T09:04:52.508Z,5.40
2022-08-01T09:07:20.710Z,5.78
2022-08-01T09:09:51.321Z,5.40
2022-08-01T09:12:21.373Z,5.78
2022-08-01T09:14:54.364Z,4.65
2022-08-01T09:17:24.131Z,4.25
2022-08-01T09:19:55.467Z,4.68
2022-08-01T09:22:27.320Z,4.40
2022-08-01T09:25:05.984Z,4.38
2022-08-01T09:27:35.344Z,3.67
2022-08-01T09:30:17.306Z,3.47
2022-08-01T09:32:59.045Z,3.13
2022-08-01T09:35:31.614Z,3.10
2022-08-01T09:38:18.563Z,3.63
2022-08-01T09:40:54.955Z,3.10
2022-08-01T09:43:27.117Z,3.58
2022-08-01T09:45:58.262Z,3.20
2022-08-01T09:48:29.862Z,2.97
2022-08-01T09:51:04.131Z,3.40
2022-08-01T09:53:51.771Z,3.58
2022-08-01T09:56:23.736Z,3.00
2022-08-01T09:58:58.909Z,3.20
2022-08-01T10:01:36.614Z,3.30
2022-08-01T10:04:12.995Z,3.50
2022-08-01T10:06:43.922Z,3.03
2022-08-01T10:09:13.848Z,3.40
2022-08-01T10:11:44.680Z,3.10
2022-08-01T10:14:17.802Z,3.05
2022-08-01T10:16:53.531Z,2.50
2022-08-01T10:19:29.425Z,2.33
2022-08-01T10:22:00.190Z,2.90
2022-08-01T10:24:33.472Z,2.25
2022-08-01T10:27:09.097Z,2.25
2022-08-01T10:29:59.194Z,2.03
2022-08-01T10:32:32.633Z,2.45
2022-08-01T10:35:06.283Z,2.35
2022-08-01T10:37:51.919Z,2.05
2022-08-01T10:40:30.992Z,2.05
2022-08-01T10:43:00.849Z,2.47
2022-08-01T10:45:30.556Z,2.33
2022-08-01T10:48:06.746Z,2.55
2022-08-01T10:50:44.331Z,2.10
2022-08-01T10:53:23.153Z,2.50
2022-08-01T10:56:01.502Z,2.17
2022-08-01T10:58:42.948Z,2.65
2022-08-01T11:01:26.285Z,2.35
2022-08-01T11:04:17.636Z,2.38
2022-08-01T11:07:03.133Z,2.47
2022-08-01T11:09:41.418Z,2.13
2022-08-01T11:12:23.307Z,2.00
2022-08-01T11:15:30.271Z,2.70
2022-08-01T11:18:02.103Z,2.22
2022-08-01T11:20:32.522Z,2.50
2022-08-01T11:23:36.071Z,2.50
2022-08-01T11:26:29.117Z,2.38
2022-08-01T11:29:21.586Z,2.70
2022-08-01T11:31:52.732Z,2.55
2022-08-01T11:34:21.630Z,2.25
2022-08-01T11:36:59.526Z,2.35
2022-08-01T11:39:29.751Z,2.35
2022-08-01T11:42:22.091Z,2.22
2022-08-01T11:44:52.456Z,2.28
2022-08-01T11:47:21.490Z,2.22
2022-08-01T11:49:56.104Z,2.35
2022-08-01T11:52:30.488Z,2.40
2022-08-01T11:55:11.501Z,2.53
2022-08-01T11:57:40.547Z,2.35
2022-08-01T12:00:16.965Z,2.20
2022-08-01T12:02:47.713Z,2.85
2022-08-01T12:05:24.627Z,1.90
2022-08-01T12:07:54.582Z,2.35
2022-08-01T12:10:26.541Z,2.25
2022-08-01T12:12:56.693Z,2.60
2022-08-01T12:15:26.557Z,2.08
2022-08-01T12:17:59.990Z,2.05
2022-08-01T12:20:32.021Z,2.65
2022-08-01T12:23:03.109Z,2.47
2022-08-01T12:25:32.827Z,2.50
2022-08-01T12:28:03.544Z,3.20
2022-08-01T12:30:36.029Z,2.38
2022-08-01T12:33:05.381Z,2.63
2022-08-01T12:35:34.613Z,2.50
2022-08-01T12:38:06.368Z,2.28
2022-08-01T12:40:42.146Z,2.45
2022-08-01T12:43:27.485Z,2.78
2022-08-01T12:46:00.812Z,2.50
2022-08-01T12:48:30.096Z,2.22
2022-08-01T12:51:02.080Z,2.13
2022-08-01T12:53:40.768Z,2.00
2022-08-01T12:56:12.552Z,2.03
2022-08-01T12:58:40.896Z,2.00
2022-08-01T13:01:11.518Z,1.98
2022-08-01T13:03:41.380Z,1.90
2022-08-01T13:06:15.899Z,1.70
2022-08-01T13:08:45.431Z,2.30
2022-08-01T13:11:19.160Z,2.38
2022-08-01T13:13:49.956Z,2.15
2022-08-01T13:16:30.243Z,2.20
2022-08-01T13:19:07.854Z,1.90
2022-08-01T13:21:54.531Z,1.83
2022-08-01T13:24:27.911Z,2.55
2022-08-01T13:27:01.181Z,2.13
2022-08-01T13:29:38.739Z,1.85
2022-08-01T13:32:28.817Z,1.60
2022-08-01T13:35:06.250Z,2.05
2022-08-01T13:37:34.573Z,2.10
2022-08-01T13:40:02.872Z,2.25
2022-08-01T13:42:32.934Z,1.92
2022-08-01T13:45:01.117Z,2.22
2022-08-01T13:47:32.549Z,1.90
2022-08-01T13:50:03.920Z,1.90
2022-08-01T13:52:32.728Z,1.85
2022-08-01T13:55:02.108Z,1.70
2022-08-01T13:57:36.262Z,2.20
2022-08-01T14:00:08.646Z,1.80
2022-08-01T14:02:36.840Z,2.20
2022-08-01T14:05:05.794Z,1.77
2022-08-01T14:07:34.406Z,1.70
2022-08-01T14:10:17.480Z,1.73
2022-08-01T14:12:49.236Z,1.90
2022-08-01T14:15:36.586Z,2.08
2022-08-01T14:18:07.813Z,2.08
2022-08-01T14:20:39.090Z,1.92
2022-08-01T14:23:08.998Z,1.83
2022-08-01T14:26:03.013Z,2.22
2022-08-01T14:28:29.723Z,1.83
2022-08-01T14:30:59.005Z,2.10
2022-08-01T14:33:27.629Z,2.20
2022-08-01T14:36:06.728Z,1.95
2022-08-01T14:38:46.606Z,1.70
2022-08-01T14:41:15.485Z,1.90
2022-08-01T14:43:45.530Z,1.20
2022-08-01T14:46:14.192Z,1.60
2022-08-01T14:48:42.593Z,1.60
2022-08-01T14:51:11.103Z,1.65
2022-08-01T14:53:40.328Z,2.33
2022-08-01T14:56:12.435Z,2.10
2022-08-01T14:58:40.575Z,2.00
2022-08-01T15:01:10.201Z,2.22
2022-08-01T15:03:38.434Z,2.05
2022-08-01T15:06:10.530Z,1.85
2022-08-01T15:08:38.846Z,2.08
2022-08-01T15:11:07.108Z,1.67
2022-08-01T15:13:39.210Z,1.80
2022-08-01T15:16:12.309Z,2.20
2022-08-01T15:18:42.843Z,2.10
2022-08-01T15:21:17.209Z,1.90
2022-08-01T15:23:48.997Z,1.95
2022-08-01T15:26:17.681Z,2.38
2022-08-01T15:28:45.810Z,1.50
2022-08-01T15:31:17.823Z,1.67
2022-08-01T15:33:45.954Z,1.85
2022-08-01T15:36:15.254Z,2.30
2022-08-01T15:38:43.724Z,1.80
2022-08-01T15:41:11.873Z,1.90
2022-08-01T15:43:44.181Z,2.08
2022-08-01T15:46:15.102Z,2.25
2022-08-01T15:48:43.284Z,1.90
2022-08-01T15:51:11.548Z,2.00
2022-08-01T15:53:40.170Z,1.92
2022-08-01T15:56:08.375Z,1.60
2022-08-01T15:58:36.585Z,1.60
2022-08-01T16:01:05.147Z,1.95
2022-08-01T16:03:34.893Z,1.77
2022-08-01T16:06:03.530Z,2.30
2022-08-01T16:08:31.768Z,2.17
2022-08-01T16:10:59.952Z,2.33
2022-08-01T16:13:28.135Z,2.35
2022-08-01T16:15:56.318Z,1.90
2022-08-01T16:18:24.679Z,1.95
2022-08-01T16:20:54.184Z,2.08
2022-08-01T16:23:22.415Z,2.40
2022-08-01T16:25:50.573Z,2.25
2022-08-01T16:28:18.842Z,2.08
2022-08-01T16:30:48.675Z,2.47
2022-08-01T16:33:41.196Z,2.20
2022-08-01T16:36:16.713Z,2.10
2022-08-01T16:38:46.028Z,2.53
2022-08-01T16:41:19.344Z,2.28
2022-08-01T16:43:53.611Z,2.15
2022-08-01T16:46:24.960Z,2.20
2022-08-01T16:48:54.054Z,2.20
2022-08-01T16:51:24.581Z,2.22
2022-08-01T16:53:52.830Z,2.13
2022-08-01T16:56:21.461Z,1.90
2022-08-01T16:58:49.742Z,2.33
2022-08-01T17:01:59.461Z,2.50
2022-08-01T17:04:06.980Z,2.10
2022-08-01T17:06:36.540Z,2.13
2022-08-01T17:09:05.846Z,1.83
2022-08-01T17:11:34.181Z,2.13
2022-08-01T17:14:03.144Z,1.80
2022-08-01T17:16:31.313Z,1.88
2022-08-01T17:18:59.484Z,2.10
2022-08-01T17:21:27.885Z,2.17
2022-08-01T17:23:57.552Z,1.50
2022-08-01T17:26:25.818Z,1.67
2022-08-01T17:28:53.986Z,1.73
2022-08-01T17:31:22.466Z,2.05
2022-08-01T17:33:54.711Z,1.88
2022-08-01T17:36:23.898Z,2.15
2022-08-01T17:38:52.145Z,2.30
2022-08-01T17:41:21.733Z,1.80
2022-08-01T17:43:56.823Z,1.90
2022-08-01T17:46:24.955Z,1.65
2022-08-01T17:48:53.211Z,1.35
2022-08-01T17:51:22.943Z,1.42
2022-08-01T17:53:57.410Z,1.30
2022-08-01T17:56:28.264Z,1.42
2022-08-01T17:58:57.213Z,2.17
2022-08-01T18:01:26.943Z,1.50
2022-08-01T18:03:57.604Z,1.80
2022-08-01T18:06:28.383Z,1.60
2022-08-01T18:08:59.834Z,1.60
2022-08-01T18:11:37.524Z,1.35
2022-08-01T18:14:06.322Z,1.42
2022-08-01T18:16:34.525Z,1.60
2022-08-01T18:19:02.918Z,1.45
2022-08-01T18:21:32.112Z,1.30
2022-08-01T18:24:01.456Z,1.48
2022-08-01T18:26:31.220Z,1.65
2022-08-01T18:28:59.336Z,1.48
2022-08-01T18:31:27.502Z,1.30
2022-08-01T18:33:55.663Z,1.48
2022-08-01T18:36:32.836Z,1.60
2022-08-01T18:39:04.434Z,1.55
2022-08-01T18:41:35.021Z,1.80
2022-08-01T18:44:07.993Z,1.77
2022-08-01T18:46:38.242Z,1.73
2022-08-01T18:49:07.861Z,1.48
2022-08-01T18:51:43.006Z,1.60
2022-08-01T18:54:12.708Z,1.63
2022-08-01T18:56:43.168Z,1.38
2022-08-01T18:59:11.764Z,1.45
2022-08-01T19:01:40.481Z,1.33
2022-08-01T19:04:09.207Z,1.60
2022-08-01T19:06:37.712Z,1.45
2022-08-01T19:09:06.137Z,1.40
2022-08-01T19:11:35.502Z,1.35
2022-08-01T19:14:05.810Z,1.40
2022-08-01T19:16:34.937Z,1.10
2022-08-01T19:19:09.518Z,1.77
2022-08-01T19:21:44.655Z,1.25
2022-08-01T19:24:23.036Z,1.60
2022-08-01T19:26:54.837Z,1.60
2022-08-01T19:29:35.340Z,1.75
2022-08-01T19:32:06.703Z,1.67
2022-08-01T19:34:44.437Z,1.40
2022-08-01T19:37:13.312Z,1.13
2022-08-01T19:39:46.008Z,1.02
2022-08-01T19:42:14.832Z,1.40
2022-08-01T19:44:45.049Z,1.40
2022-08-01T19:47:14.741Z,1.50
2022-08-01T19:49:42.931Z,1.38
2022-08-01T19:52:13.709Z,1.40
2022-08-01T19:54:46.507Z,1.40
2022-08-01T19:57:16.813Z,1.20
2022-08-01T19:59:48.694Z,1.48
2022-08-01T20:02:20.823Z,1.25
2022-08-01T20:04:50.231Z,1.40
2022-08-01T20:07:18.530Z,1.58
2022-08-01T20:09:50.700Z,1.10
2022-08-01T20:12:23.738Z,1.38
2022-08-01T20:14:55.471Z,1.23
2022-08-01T20:17:25.048Z,1.50
2022-08-01T20:19:53.815Z,1.45
2022-08-01T20:22:26.792Z,1.75
2022-08-01T20:24:59.275Z,1.13
2022-08-01T20:27:30.937Z,1.48
2022-08-01T20:30:02.486Z,1.48
2022-08-01T20:32:34.014Z,2.38
2022-08-01T20:35:05.039Z,2.00
2022-08-01T20:38:03.964Z,1.80
2022-08-01T20:40:28.339Z,1.70
2022-08-01T20:42:57.698Z,1.90
2022-08-01T20:45:28.521Z,1.83
2022-08-01T20:47:59.467Z,1.80
2022-08-01T20:50:53.144Z,1.55
2022-08-01T20:53:23.776Z,1.73
2022-08-01T20:56:05.580Z,1.80
2022-08-01T20:58:45.406Z,1.98
2022-08-01T21:01:16.916Z,1.67
2022-08-01T21:04:10.867Z,1.63
2022-08-01T21:06:43.747Z,1.80
2022-08-01T21:09:14.922Z,2.00
2022-08-01T21:11:59.331Z,1.85
2022-08-01T21:14:41.594Z,1.52
2022-08-01T21:17:17.675Z,1.90
2022-08-01T21:19:47.297Z,1.63
2022-08-01T21:22:27.153Z,1.70
2022-08-01T21:25:02.538Z,2.03
2022-08-01T21:27:34.125Z,1.77
2022-08-01T21:30:05.975Z,1.70
2022-08-01T21:32:37.532Z,1.90
2022-08-01T21:35:16.597Z,1.73
2022-08-01T21:37:51.950Z,1.55
2022-08-01T21:40:22.401Z,1.77
2022-08-01T21:42:52.857Z,1.70
2022-08-01T21:45:24.216Z,2.17
2022-08-01T21:47:55.310Z,1.60
2022-08-01T21:50:24.711Z,1.58
2022-08-01T21:53:12.004Z,1.90
2022-08-01T21:55:57.354Z,1.80
2022-08-01T21:58:35.558Z,1.80
2022-08-01T22:01:09.129Z,1.65
2022-08-01T22:03:47.929Z,2.22
2022-08-01T22:06:18.134Z,1.77
2022-08-01T22:08:51.804Z,2.03
2022-08-01T22:11:22.809Z,2.17
2022-08-01T22:13:54.993Z,2.17
2022-08-01T22:16:24.222Z,1.80
2022-08-01T22:18:54.927Z,1.90
2022-08-01T22:21:23.372Z,1.80
2022-08-01T22:23:53.154Z,1.80
2022-08-01T22:26:28.934Z,1.77
2022-08-01T22:28:58.073Z,2.17
2022-08-01T22:31:27.425Z,1.63
2022-08-01T22:33:57.626Z,1.85
2022-08-01T22:36:28.158Z,1.70
2022-08-01T22:38:57.410Z,1.98
2022-08-01T22:42:01.447Z,1.80
2022-08-01T22:44:30.765Z,1.85
2022-08-01T22:47:05.710Z,1.67
2022-08-01T22:49:40.540Z,1.80
2022-08-01T22:52:14.634Z,1.70
2022-08-01T22:54:51.240Z,1.58
2022-08-01T22:57:26.391Z,1.52
2022-08-01T23:00:02.476Z,1.60
2022-08-01T23:02:34.359Z,1.80
2022-08-01T23:05:08.330Z,2.00
2022-08-01T23:07:40.780Z,2.10
2022-08-01T23:10:10.594Z,2.03
2022-08-01T23:12:40.199Z,2.38
2022-08-01T23:15:10.252Z,2.10
2022-08-01T23:17:38.457Z,2.38
2022-08-01T23:20:09.643Z,2.35
2022-08-01T23:22:38.994Z,2.22
2022-08-01T23:25:09.948Z,1.90
2022-08-01T23:27:51.597Z,2.25
2022-08-01T23:30:31.335Z,2.05
2022-08-01T23:33:00.194Z,2.03
2022-08-01T23:35:31.154Z,2.33
2022-08-01T23:38:02.895Z,2.15
2022-08-01T23:40:33.211Z,1.52
2022-08-01T23:43:02.825Z,2.20
2022-08-01T23:46:00.755Z,1.67
2022-08-01T23:48:19.916Z,1.70
2022-08-01T23:50:49.476Z,1.77
2022-08-01T23:53:17.809Z,2.20
2022-08-01T23:55:48.971Z,1.73
2022-08-01T23:58:18.076Z,1.60
